sensor_id;sensor_type;location;lat;lon;timestamp;P1;durP1;ratioP1;P2;durP2;ratioP2
323;SDS011;149;51.094;17.002;2023-05-02T00:01:33;9.00;;;6.90;;
323;SDS011;149;51.094;17.002;2023-05-02T00:04:01;6.43;;;5.82;;
323;SDS011;149;51.094;17.002;2023-05-02T00:06:29;7.00;;;6.22;;
323;SDS011;149;51.094;17.002;2023-05-02T00:08:57;6.40;;;5.75;;
323;SDS011;149;51.094;17.002;2023-05-02T00:11:24;7.35;;;5.63;;
323;SDS011;149;51.094;17.002;2023-05-02T00:13:52;8.38;;;5.32;;
323;SDS011;149;51.094;17.002;2023-05-02T00:16:19;7.05;;;6.30;;
323;SDS011;149;51.094;17.002;2023-05-02T00:18:46;8.13;;;6.82;;
323;SDS011;149;51.094;17.002;2023-05-02T00:21:14;10.40;;;7.70;;
323;SDS011;149;51.094;17.002;2023-05-02T00:23:41;5.85;;;5.32;;
323;SDS011;149;51.094;17.002;2023-05-02T00:26:08;7.45;;;5.55;;
323;SDS011;149;51.094;17.002;2023-05-02T00:28:36;6.78;;;5.97;;
323;SDS011;149;51.094;17.002;2023-05-02T00:31:05;7.30;;;6.30;;
323;SDS011;149;51.094;17.002;2023-05-02T00:33:33;7.55;;;5.85;;
323;SDS011;149;51.094;17.002;2023-05-02T00:35:59;7.30;;;6.60;;
323;SDS011;149;51.094;17.002;2023-05-02T00:38:27;6.95;;;6.25;;
323;SDS011;149;51.094;17.002;2023-05-02T00:40:54;7.13;;;6.53;;
323;SDS011;149;51.094;17.002;2023-05-02T00:43:21;9.00;;;7.18;;
323;SDS011;149;51.094;17.002;2023-05-02T00:45:48;7.43;;;6.65;;
323;SDS011;149;51.094;17.002;2023-05-02T00:48:17;10.50;;;7.05;;
323;SDS011;149;51.094;17.002;2023-05-02T00:50:46;6.80;;;6.10;;
323;SDS011;149;51.094;17.002;2023-05-02T00:53:13;11.52;;;6.10;;
323;SDS011;149;51.094;17.002;2023-05-02T00:55:41;10.82;;;6.30;;
323;SDS011;149;51.094;17.002;2023-05-02T00:58:12;7.40;;;5.50;;
323;SDS011;149;51.094;17.002;2023-05-02T01:00:45;6.80;;;6.10;;
323;SDS011;149;51.094;17.002;2023-05-02T01:09:24;9.68;;;7.03;;
323;SDS011;149;51.094;17.002;2023-05-02T01:11:59;6.88;;;6.18;;
323;SDS011;149;51.094;17.002;2023-05-02T01:14:40;7.43;;;6.72;;
323;SDS011;149;51.094;17.002;2023-05-02T01:17:11;7.63;;;6.32;;
323;SDS011;149;51.094;17.002;2023-05-02T01:19:42;8.77;;;6.57;;
323;SDS011;149;51.094;17.002;2023-05-02T01:22:18;7.65;;;6.88;;
323;SDS011;149;51.094;17.002;2023-05-02T01:27:30;7.03;;;6.43;;
323;SDS011;149;51.094;17.002;2023-05-02T01:30:03;8.85;;;7.03;;
323;SDS011;149;51.094;17.002;2023-05-02T01:32:32;6.32;;;5.82;;
323;SDS011;149;51.094;17.002;2023-05-02T01:35:02;7.22;;;6.60;;
323;SDS011;149;51.094;17.002;2023-05-02T01:37:31;7.50;;;6.80;;
323;SDS011;149;51.094;17.002;2023-05-02T01:40:01;8.48;;;6.55;;
323;SDS011;149;51.094;17.002;2023-05-02T01:42:31;7.45;;;6.72;;
323;SDS011;149;51.094;17.002;2023-05-02T01:45:01;10.98;;;7.38;;
323;SDS011;149;51.094;17.002;2023-05-02T01:47:31;8.02;;;7.22;;
323;SDS011;149;51.094;17.002;2023-05-02T01:50:00;7.45;;;6.78;;
323;SDS011;149;51.094;17.002;2023-05-02T01:52:32;9.48;;;7.18;;
323;SDS011;149;51.094;17.002;2023-05-02T01:55:00;9.32;;;6.80;;
323;SDS011;149;51.094;17.002;2023-05-02T01:57:30;7.75;;;6.90;;
323;SDS011;149;51.094;17.002;2023-05-02T01:59:58;9.50;;;7.30;;
323;SDS011;149;51.094;17.002;2023-05-02T02:07:49;6.78;;;6.18;;
323;SDS011;149;51.094;17.002;2023-05-02T02:13:04;9.23;;;6.95;;
323;SDS011;149;51.094;17.002;2023-05-02T02:18:20;6.85;;;6.15;;
323;SDS011;149;51.094;17.002;2023-05-02T02:26:27;9.88;;;7.10;;
323;SDS011;149;51.094;17.002;2023-05-02T02:28:55;7.93;;;6.50;;
323;SDS011;149;51.094;17.002;2023-05-02T02:31:21;10.55;;;7.22;;
323;SDS011;149;51.094;17.002;2023-05-02T02:44:24;8.88;;;7.10;;
323;SDS011;149;51.094;17.002;2023-05-02T02:47:00;9.25;;;7.15;;
323;SDS011;149;51.094;17.002;2023-05-02T02:55:03;8.43;;;7.63;;
323;SDS011;149;51.094;17.002;2023-05-02T02:57:46;9.27;;;8.38;;
323;SDS011;149;51.094;17.002;2023-05-02T03:00:34;8.35;;;7.55;;
323;SDS011;149;51.094;17.002;2023-05-02T03:03:01;10.32;;;7.38;;
323;SDS011;149;51.094;17.002;2023-05-02T03:05:28;9.52;;;7.30;;
323;SDS011;149;51.094;17.002;2023-05-02T03:07:58;10.98;;;6.93;;
323;SDS011;149;51.094;17.002;2023-05-02T03:10:26;7.20;;;6.03;;
323;SDS011;149;51.094;17.002;2023-05-02T03:12:53;8.25;;;6.00;;
323;SDS011;149;51.094;17.002;2023-05-02T03:18:06;5.00;;;4.60;;
323;SDS011;149;51.094;17.002;2023-05-02T03:20:33;4.75;;;4.35;;
323;SDS011;149;51.094;17.002;2023-05-02T03:23:01;5.65;;;5.15;;
323;SDS011;149;51.094;17.002;2023-05-02T03:25:27;5.13;;;4.60;;
323;SDS011;149;51.094;17.002;2023-05-02T03:27:55;7.10;;;5.45;;
323;SDS011;149;51.094;17.002;2023-05-02T03:30:23;9.07;;;5.20;;
323;SDS011;149;51.094;17.002;2023-05-02T03:32:49;7.07;;;4.95;;
323;SDS011;149;51.094;17.002;2023-05-02T03:35:16;11.43;;;4.32;;
323;SDS011;149;51.094;17.002;2023-05-02T03:37:43;5.75;;;4.30;;
323;SDS011;149;51.094;17.002;2023-05-02T03:40:10;6.88;;;4.40;;
323;SDS011;149;51.094;17.002;2023-05-02T03:42:38;4.18;;;3.80;;
323;SDS011;149;51.094;17.002;2023-05-02T03:45:05;9.25;;;4.45;;
323;SDS011;149;51.094;17.002;2023-05-02T03:47:32;5.85;;;4.53;;
323;SDS011;149;51.094;17.002;2023-05-02T03:50:02;5.97;;;4.40;;
323;SDS011;149;51.094;17.002;2023-05-02T03:52:29;6.68;;;4.55;;
323;SDS011;149;51.094;17.002;2023-05-02T03:54:56;10.10;;;4.50;;
323;SDS011;149;51.094;17.002;2023-05-02T03:57:23;8.52;;;3.63;;
323;SDS011;149;51.094;17.002;2023-05-02T03:59:50;5.80;;;4.30;;
323;SDS011;149;51.094;17.002;2023-05-02T04:02:18;5.10;;;4.47;;
323;SDS011;149;51.094;17.002;2023-05-02T04:04:45;4.05;;;3.67;;
323;SDS011;149;51.094;17.002;2023-05-02T04:07:12;6.32;;;4.75;;
323;SDS011;149;51.094;17.002;2023-05-02T04:09:44;4.65;;;4.20;;
323;SDS011;149;51.094;17.002;2023-05-02T04:12:11;6.38;;;4.80;;
323;SDS011;149;51.094;17.002;2023-05-02T04:14:38;5.38;;;4.80;;
323;SDS011;149;51.094;17.002;2023-05-02T04:17:05;11.10;;;4.43;;
323;SDS011;149;51.094;17.002;2023-05-02T04:19:34;6.18;;;4.88;;
323;SDS011;149;51.094;17.002;2023-05-02T04:22:01;9.65;;;5.47;;
323;SDS011;149;51.094;17.002;2023-05-02T04:24:28;5.38;;;4.85;;
323;SDS011;149;51.094;17.002;2023-05-02T04:26:55;6.45;;;5.70;;
323;SDS011;149;51.094;17.002;2023-05-02T04:29:22;9.30;;;6.28;;
323;SDS011;149;51.094;17.002;2023-05-02T04:31:48;5.45;;;4.75;;
323;SDS011;149;51.094;17.002;2023-05-02T04:34:16;6.55;;;5.57;;
323;SDS011;149;51.094;17.002;2023-05-02T04:36:44;6.22;;;5.63;;
323;SDS011;149;51.094;17.002;2023-05-02T04:39:12;7.72;;;6.45;;
323;SDS011;149;51.094;17.002;2023-05-02T04:41:38;6.78;;;5.57;;
323;SDS011;149;51.094;17.002;2023-05-02T04:44:08;8.77;;;4.90;;
323;SDS011;149;51.094;17.002;2023-05-02T04:46:37;5.43;;;4.93;;
323;SDS011;149;51.094;17.002;2023-05-02T04:49:04;5.78;;;5.18;;
323;SDS011;149;51.094;17.002;2023-05-02T04:51:32;6.32;;;5.03;;
323;SDS011;149;51.094;17.002;2023-05-02T04:53:58;5.90;;;5.25;;
323;SDS011;149;51.094;17.002;2023-05-02T04:56:26;6.22;;;5.63;;
323;SDS011;149;51.094;17.002;2023-05-02T04:58:52;7.03;;;5.55;;
323;SDS011;149;51.094;17.002;2023-05-02T05:01:19;6.95;;;5.50;;
323;SDS011;149;51.094;17.002;2023-05-02T05:03:49;5.88;;;5.15;;
323;SDS011;149;51.094;17.002;2023-05-02T05:06:16;7.57;;;6.80;;
323;SDS011;149;51.094;17.002;2023-05-02T05:08:44;10.52;;;6.40;;
323;SDS011;149;51.094;17.002;2023-05-02T05:11:13;7.70;;;6.90;;
323;SDS011;149;51.094;17.002;2023-05-02T05:13:41;6.30;;;5.70;;
323;SDS011;149;51.094;17.002;2023-05-02T05:16:08;7.55;;;5.78;;
323;SDS011;149;51.094;17.002;2023-05-02T05:18:35;6.13;;;5.53;;
323;SDS011;149;51.094;17.002;2023-05-02T05:21:06;9.85;;;7.60;;
323;SDS011;149;51.094;17.002;2023-05-02T05:23:34;7.80;;;6.80;;
323;SDS011;149;51.094;17.002;2023-05-02T05:26:11;9.77;;;7.88;;
323;SDS011;149;51.094;17.002;2023-05-02T05:28:39;11.38;;;6.82;;
323;SDS011;149;51.094;17.002;2023-05-02T05:31:07;9.30;;;6.55;;
323;SDS011;149;51.094;17.002;2023-05-02T05:33:35;6.88;;;6.15;;
323;SDS011;149;51.094;17.002;2023-05-02T05:36:12;7.40;;;6.80;;
323;SDS011;149;51.094;17.002;2023-05-02T05:38:40;7.85;;;6.57;;
323;SDS011;149;51.094;17.002;2023-05-02T05:41:07;6.70;;;6.05;;
323;SDS011;149;51.094;17.002;2023-05-02T05:43:34;8.35;;;7.50;;
323;SDS011;149;51.094;17.002;2023-05-02T05:46:03;8.05;;;6.50;;
323;SDS011;149;51.094;17.002;2023-05-02T05:48:31;8.43;;;5.87;;
323;SDS011;149;51.094;17.002;2023-05-02T05:51:01;7.28;;;6.15;;
323;SDS011;149;51.094;17.002;2023-05-02T05:53:32;7.40;;;6.38;;
323;SDS011;149;51.094;17.002;2023-05-02T05:56:06;8.43;;;6.20;;
323;SDS011;149;51.094;17.002;2023-05-02T05:58:34;8.20;;;7.40;;
323;SDS011;149;51.094;17.002;2023-05-02T06:01:04;7.38;;;6.78;;
323;SDS011;149;51.094;17.002;2023-05-02T06:03:31;10.70;;;7.00;;
323;SDS011;149;51.094;17.002;2023-05-02T06:06:00;8.23;;;6.20;;
323;SDS011;149;51.094;17.002;2023-05-02T06:08:28;6.23;;;5.67;;
323;SDS011;149;51.094;17.002;2023-05-02T06:10:55;7.73;;;5.33;;
323;SDS011;149;51.094;17.002;2023-05-02T06:13:22;7.30;;;5.10;;
323;SDS011;149;51.094;17.002;2023-05-02T06:15:49;9.33;;;6.10;;
323;SDS011;149;51.094;17.002;2023-05-02T06:18:16;9.80;;;6.33;;
323;SDS011;149;51.094;17.002;2023-05-02T06:20:43;6.97;;;5.60;;
323;SDS011;149;51.094;17.002;2023-05-02T06:23:10;6.00;;;4.83;;
323;SDS011;149;51.094;17.002;2023-05-02T06:25:39;5.70;;;4.77;;
323;SDS011;149;51.094;17.002;2023-05-02T06:28:06;5.90;;;5.23;;
323;SDS011;149;51.094;17.002;2023-05-02T06:30:34;5.57;;;4.53;;
323;SDS011;149;51.094;17.002;2023-05-02T06:33:04;6.03;;;5.53;;
323;SDS011;149;51.094;17.002;2023-05-02T06:35:33;6.03;;;5.43;;
323;SDS011;149;51.094;17.002;2023-05-02T06:38:00;7.17;;;5.80;;
323;SDS011;149;51.094;17.002;2023-05-02T06:40:29;6.70;;;5.47;;
323;SDS011;149;51.094;17.002;2023-05-02T06:42:56;7.53;;;5.90;;
323;SDS011;149;51.094;17.002;2023-05-02T06:45:23;7.97;;;5.90;;
323;SDS011;149;51.094;17.002;2023-05-02T06:47:50;8.17;;;5.70;;
323;SDS011;149;51.094;17.002;2023-05-02T06:50:18;6.27;;;5.20;;
323;SDS011;149;51.094;17.002;2023-05-02T06:52:47;6.70;;;6.10;;
323;SDS011;149;51.094;17.002;2023-05-02T06:55:15;9.73;;;6.03;;
323;SDS011;149;51.094;17.002;2023-05-02T06:57:42;6.57;;;5.97;;
323;SDS011;149;51.094;17.002;2023-05-02T07:00:09;9.10;;;6.60;;
323;SDS011;149;51.094;17.002;2023-05-02T07:02:36;8.97;;;5.70;;
323;SDS011;149;51.094;17.002;2023-05-02T07:05:07;7.50;;;6.50;;
323;SDS011;149;51.094;17.002;2023-05-02T07:07:34;8.63;;;6.67;;
323;SDS011;149;51.094;17.002;2023-05-02T07:10:02;11.60;;;7.37;;
323;SDS011;149;51.094;17.002;2023-05-02T07:12:29;6.57;;;5.87;;
323;SDS011;149;51.094;17.002;2023-05-02T07:14:56;6.43;;;5.93;;
323;SDS011;149;51.094;17.002;2023-05-02T07:17:23;7.40;;;6.70;;
323;SDS011;149;51.094;17.002;2023-05-02T07:19:51;9.23;;;5.63;;
323;SDS011;149;51.094;17.002;2023-05-02T07:22:18;7.70;;;6.30;;
323;SDS011;149;51.094;17.002;2023-05-02T07:24:46;5.93;;;5.43;;
323;SDS011;149;51.094;17.002;2023-05-02T07:27:22;6.13;;;4.80;;
323;SDS011;149;51.094;17.002;2023-05-02T07:29:49;9.67;;;8.77;;
323;SDS011;149;51.094;17.002;2023-05-02T07:32:16;7.63;;;6.93;;
323;SDS011;149;51.094;17.002;2023-05-02T07:34:43;8.60;;;6.57;;
323;SDS011;149;51.094;17.002;2023-05-02T07:37:10;6.00;;;5.40;;
323;SDS011;149;51.094;17.002;2023-05-02T07:39:37;9.90;;;5.77;;
323;SDS011;149;51.094;17.002;2023-05-02T07:42:03;9.37;;;6.93;;
323;SDS011;149;51.094;17.002;2023-05-02T07:44:32;8.20;;;6.37;;
323;SDS011;149;51.094;17.002;2023-05-02T07:47:00;8.30;;;7.10;;
323;SDS011;149;51.094;17.002;2023-05-02T07:49:27;6.07;;;5.57;;
323;SDS011;149;51.094;17.002;2023-05-02T07:51:53;8.63;;;6.57;;
323;SDS011;149;51.094;17.002;2023-05-02T07:54:21;8.23;;;6.70;;
323;SDS011;149;51.094;17.002;2023-05-02T07:56:51;8.63;;;6.47;;
323;SDS011;149;51.094;17.002;2023-05-02T07:59:18;7.07;;;6.40;;
323;SDS011;149;51.094;17.002;2023-05-02T08:01:46;8.00;;;6.80;;
323;SDS011;149;51.094;17.002;2023-05-02T08:04:13;7.27;;;6.67;;
323;SDS011;149;51.094;17.002;2023-05-02T08:06:40;10.10;;;7.90;;
323;SDS011;149;51.094;17.002;2023-05-02T08:09:10;7.80;;;5.43;;
323;SDS011;149;51.094;17.002;2023-05-02T08:11:37;8.37;;;6.60;;
323;SDS011;149;51.094;17.002;2023-05-02T08:14:03;6.30;;;5.80;;
323;SDS011;149;51.094;17.002;2023-05-02T08:16:30;6.57;;;5.63;;
323;SDS011;149;51.094;17.002;2023-05-02T08:18:58;6.60;;;5.97;;
323;SDS011;149;51.094;17.002;2023-05-02T08:21:24;7.80;;;5.70;;
323;SDS011;149;51.094;17.002;2023-05-02T08:23:55;6.57;;;5.97;;
323;SDS011;149;51.094;17.002;2023-05-02T08:26:24;6.63;;;6.07;;
323;SDS011;149;51.094;17.002;2023-05-02T08:28:51;6.67;;;6.00;;
323;SDS011;149;51.094;17.002;2023-05-02T08:31:20;6.47;;;5.80;;
323;SDS011;149;51.094;17.002;2023-05-02T08:33:47;6.23;;;5.67;;
323;SDS011;149;51.094;17.002;2023-05-02T08:36:15;8.00;;;6.50;;
323;SDS011;149;51.094;17.002;2023-05-02T08:38:43;6.43;;;5.83;;
323;SDS011;149;51.094;17.002;2023-05-02T08:41:11;12.53;;;7.07;;
323;SDS011;149;51.094;17.002;2023-05-02T08:43:43;8.60;;;5.83;;
323;SDS011;149;51.094;17.002;2023-05-02T08:46:12;6.70;;;6.00;;
323;SDS011;149;51.094;17.002;2023-05-02T08:48:41;6.87;;;6.13;;
323;SDS011;149;51.094;17.002;2023-05-02T08:51:11;6.03;;;5.00;;
323;SDS011;149;51.094;17.002;2023-05-02T08:53:39;21.57;;;6.97;;
323;SDS011;149;51.094;17.002;2023-05-02T08:56:07;5.87;;;5.40;;
323;SDS011;149;51.094;17.002;2023-05-02T08:58:36;7.83;;;6.53;;
323;SDS011;149;51.094;17.002;2023-05-02T09:01:16;6.07;;;5.60;;
323;SDS011;149;51.094;17.002;2023-05-02T09:03:46;7.10;;;6.50;;
323;SDS011;149;51.094;17.002;2023-05-02T09:06:18;11.20;;;7.33;;
323;SDS011;149;51.094;17.002;2023-05-02T09:08:48;8.50;;;7.20;;
323;SDS011;149;51.094;17.002;2023-05-02T09:11:17;8.33;;;7.50;;
323;SDS011;149;51.094;17.002;2023-05-02T09:13:49;8.93;;;7.33;;
323;SDS011;149;51.094;17.002;2023-05-02T09:16:20;8.20;;;6.00;;
323;SDS011;149;51.094;17.002;2023-05-02T09:18:52;7.90;;;7.20;;
323;SDS011;149;51.094;17.002;2023-05-02T09:21:21;6.77;;;6.07;;
323;SDS011;149;51.094;17.002;2023-05-02T09:23:51;6.33;;;5.70;;
323;SDS011;149;51.094;17.002;2023-05-02T09:26:24;10.03;;;5.50;;
323;SDS011;149;51.094;17.002;2023-05-02T09:28:59;8.30;;;7.50;;
323;SDS011;149;51.094;17.002;2023-05-02T09:31:32;7.77;;;6.53;;
323;SDS011;149;51.094;17.002;2023-05-02T09:34:09;10.30;;;6.93;;
323;SDS011;149;51.094;17.002;2023-05-02T09:36:41;6.77;;;5.53;;
323;SDS011;149;51.094;17.002;2023-05-02T09:39:13;12.03;;;6.60;;
323;SDS011;149;51.094;17.002;2023-05-02T09:41:41;11.23;;;7.57;;
323;SDS011;149;51.094;17.002;2023-05-02T09:44:12;7.57;;;6.53;;
323;SDS011;149;51.094;17.002;2023-05-02T09:46:43;9.37;;;7.17;;
323;SDS011;149;51.094;17.002;2023-05-02T09:49:12;9.00;;;7.03;;
323;SDS011;149;51.094;17.002;2023-05-02T09:51:40;14.00;;;7.10;;
323;SDS011;149;51.094;17.002;2023-05-02T09:54:11;9.33;;;7.63;;
323;SDS011;149;51.094;17.002;2023-05-02T09:56:51;7.10;;;6.40;;
323;SDS011;149;51.094;17.002;2023-05-02T09:59:22;7.90;;;7.03;;
323;SDS011;149;51.094;17.002;2023-05-02T10:01:56;7.17;;;6.57;;
323;SDS011;149;51.094;17.002;2023-05-02T10:04:28;8.07;;;7.23;;
323;SDS011;149;51.094;17.002;2023-05-02T10:06:57;7.20;;;6.50;;
323;SDS011;149;51.094;17.002;2023-05-02T10:09:26;8.50;;;7.70;;
323;SDS011;149;51.094;17.002;2023-05-02T10:11:55;7.87;;;7.20;;
323;SDS011;149;51.094;17.002;2023-05-02T10:14:23;7.03;;;6.43;;
323;SDS011;149;51.094;17.002;2023-05-02T10:17:04;8.00;;;6.70;;
323;SDS011;149;51.094;17.002;2023-05-02T10:19:47;6.43;;;5.83;;
323;SDS011;149;51.094;17.002;2023-05-02T10:22:21;7.27;;;5.80;;
323;SDS011;149;51.094;17.002;2023-05-02T10:24:50;6.90;;;6.30;;
323;SDS011;149;51.094;17.002;2023-05-02T10:27:18;7.93;;;5.57;;
323;SDS011;149;51.094;17.002;2023-05-02T10:29:45;6.73;;;6.13;;
323;SDS011;149;51.094;17.002;2023-05-02T10:32:15;6.47;;;5.80;;
323;SDS011;149;51.094;17.002;2023-05-02T10:34:43;8.77;;;6.47;;
323;SDS011;149;51.094;17.002;2023-05-02T10:37:11;7.90;;;5.40;;
323;SDS011;149;51.094;17.002;2023-05-02T10:39:40;9.50;;;6.87;;
323;SDS011;149;51.094;17.002;2023-05-02T10:42:07;9.97;;;5.93;;
323;SDS011;149;51.094;17.002;2023-05-02T10:44:36;8.80;;;6.27;;
323;SDS011;149;51.094;17.002;2023-05-02T10:47:21;10.13;;;6.47;;
323;SDS011;149;51.094;17.002;2023-05-02T10:49:50;9.63;;;7.17;;
323;SDS011;149;51.094;17.002;2023-05-02T10:52:32;6.30;;;5.50;;
323;SDS011;149;51.094;17.002;2023-05-02T10:55:20;10.80;;;7.57;;
323;SDS011;149;51.094;17.002;2023-05-02T11:00:38;10.33;;;5.90;;
323;SDS011;149;51.094;17.002;2023-05-02T11:03:05;6.37;;;5.77;;
323;SDS011;149;51.094;17.002;2023-05-02T11:05:32;7.97;;;7.17;;
323;SDS011;149;51.094;17.002;2023-05-02T11:08:34;6.60;;;6.00;;
323;SDS011;149;51.094;17.002;2023-05-02T11:11:36;8.77;;;6.10;;
323;SDS011;149;51.094;17.002;2023-05-02T11:14:03;5.20;;;4.60;;
323;SDS011;149;51.094;17.002;2023-05-02T11:24:54;7.33;;;6.33;;
323;SDS011;149;51.094;17.002;2023-05-02T11:29:58;6.83;;;6.10;;
323;SDS011;149;51.094;17.002;2023-05-02T11:37:53;6.77;;;6.20;;
323;SDS011;149;51.094;17.002;2023-05-02T11:40:21;6.77;;;6.07;;
323;SDS011;149;51.094;17.002;2023-05-02T11:42:48;6.70;;;6.10;;
323;SDS011;149;51.094;17.002;2023-05-02T11:45:17;6.73;;;6.13;;
323;SDS011;149;51.094;17.002;2023-05-02T11:47:44;6.60;;;6.00;;
323;SDS011;149;51.094;17.002;2023-05-02T11:50:13;10.40;;;6.80;;
323;SDS011;149;51.094;17.002;2023-05-02T11:52:42;6.77;;;6.17;;
323;SDS011;149;51.094;17.002;2023-05-02T11:55:12;8.60;;;6.30;;
323;SDS011;149;51.094;17.002;2023-05-02T11:57:40;5.90;;;5.20;;
323;SDS011;149;51.094;17.002;2023-05-02T12:00:08;7.03;;;6.33;;
323;SDS011;149;51.094;17.002;2023-05-02T12:02:39;6.27;;;5.73;;
323;SDS011;149;51.094;17.002;2023-05-02T12:05:13;8.63;;;6.27;;
323;SDS011;149;51.094;17.002;2023-05-02T12:07:41;7.77;;;6.30;;
323;SDS011;149;51.094;17.002;2023-05-02T12:10:14;8.80;;;5.53;;
323;SDS011;149;51.094;17.002;2023-05-02T12:12:42;6.57;;;5.90;;
323;SDS011;149;51.094;17.002;2023-05-02T12:15:10;6.50;;;5.90;;
323;SDS011;149;51.094;17.002;2023-05-02T12:17:38;8.73;;;7.37;;
323;SDS011;149;51.094;17.002;2023-05-02T12:20:10;6.80;;;6.10;;
323;SDS011;149;51.094;17.002;2023-05-02T12:22:38;9.27;;;7.10;;
323;SDS011;149;51.094;17.002;2023-05-02T12:25:05;7.00;;;5.53;;
323;SDS011;149;51.094;17.002;2023-05-02T12:27:33;6.80;;;5.93;;
323;SDS011;149;51.094;17.002;2023-05-02T12:30:00;7.00;;;5.53;;
323;SDS011;149;51.094;17.002;2023-05-02T12:32:29;10.63;;;6.80;;
323;SDS011;149;51.094;17.002;2023-05-02T12:34:57;5.80;;;5.23;;
323;SDS011;149;51.094;17.002;2023-05-02T12:37:26;5.70;;;4.67;;
323;SDS011;149;51.094;17.002;2023-05-02T12:39:54;8.03;;;5.83;;
323;SDS011;149;51.094;17.002;2023-05-02T12:42:23;5.57;;;5.13;;
323;SDS011;149;51.094;17.002;2023-05-02T12:44:51;5.43;;;4.93;;
323;SDS011;149;51.094;17.002;2023-05-02T12:47:20;8.70;;;5.57;;
323;SDS011;149;51.094;17.002;2023-05-02T12:52:19;10.93;;;5.30;;
323;SDS011;149;51.094;17.002;2023-05-02T12:54:47;4.53;;;4.13;;
323;SDS011;149;51.094;17.002;2023-05-02T12:57:21;6.17;;;4.47;;
323;SDS011;149;51.094;17.002;2023-05-02T12:59:52;4.77;;;4.37;;
323;SDS011;149;51.094;17.002;2023-05-02T13:02:22;7.83;;;4.70;;
323;SDS011;149;51.094;17.002;2023-05-02T13:04:51;9.73;;;5.00;;
323;SDS011;149;51.094;17.002;2023-05-02T13:07:19;3.60;;;3.30;;
323;SDS011;149;51.094;17.002;2023-05-02T13:09:46;3.63;;;3.33;;
323;SDS011;149;51.094;17.002;2023-05-02T13:12:13;5.60;;;3.30;;
323;SDS011;149;51.094;17.002;2023-05-02T13:14:41;2.97;;;2.73;;
323;SDS011;149;51.094;17.002;2023-05-02T13:17:09;3.13;;;2.83;;
323;SDS011;149;51.094;17.002;2023-05-02T13:19:36;4.70;;;3.70;;
323;SDS011;149;51.094;17.002;2023-05-02T13:22:19;9.43;;;4.10;;
323;SDS011;149;51.094;17.002;2023-05-02T13:24:47;6.47;;;4.10;;
323;SDS011;149;51.094;17.002;2023-05-02T13:27:13;3.80;;;3.50;;
323;SDS011;149;51.094;17.002;2023-05-02T13:29:43;4.30;;;3.90;;
323;SDS011;149;51.094;17.002;2023-05-02T13:32:11;6.20;;;4.70;;
323;SDS011;149;51.094;17.002;2023-05-02T13:34:38;4.30;;;4.00;;
323;SDS011;149;51.094;17.002;2023-05-02T13:37:05;5.17;;;3.70;;
323;SDS011;149;51.094;17.002;2023-05-02T13:39:31;4.83;;;3.90;;
323;SDS011;149;51.094;17.002;2023-05-02T13:41:58;4.70;;;3.93;;
323;SDS011;149;51.094;17.002;2023-05-02T13:44:30;5.30;;;4.70;;
323;SDS011;149;51.094;17.002;2023-05-02T13:46:57;4.13;;;3.70;;
323;SDS011;149;51.094;17.002;2023-05-02T13:49:27;4.80;;;4.40;;
323;SDS011;149;51.094;17.002;2023-05-02T13:51:57;4.63;;;3.80;;
323;SDS011;149;51.094;17.002;2023-05-02T13:54:25;5.10;;;4.07;;
323;SDS011;149;51.094;17.002;2023-05-02T13:56:51;4.90;;;4.37;;
323;SDS011;149;51.094;17.002;2023-05-02T13:59:19;5.60;;;4.43;;
323;SDS011;149;51.094;17.002;2023-05-02T14:01:46;7.03;;;4.50;;
323;SDS011;149;51.094;17.002;2023-05-02T14:04:15;5.20;;;4.33;;
323;SDS011;149;51.094;17.002;2023-05-02T14:06:42;5.10;;;4.00;;
323;SDS011;149;51.094;17.002;2023-05-02T14:09:09;4.73;;;4.20;;
323;SDS011;149;51.094;17.002;2023-05-02T14:11:39;6.57;;;4.60;;
323;SDS011;149;51.094;17.002;2023-05-02T14:14:06;14.20;;;4.60;;
323;SDS011;149;51.094;17.002;2023-05-02T14:16:34;4.33;;;3.93;;
323;SDS011;149;51.094;17.002;2023-05-02T14:19:01;5.07;;;4.63;;
323;SDS011;149;51.094;17.002;2023-05-02T14:21:28;4.60;;;4.20;;
323;SDS011;149;51.094;17.002;2023-05-02T14:23:55;4.43;;;3.70;;
323;SDS011;149;51.094;17.002;2023-05-02T14:26:21;7.83;;;4.43;;
323;SDS011;149;51.094;17.002;2023-05-02T14:28:48;6.23;;;4.53;;
323;SDS011;149;51.094;17.002;2023-05-02T14:31:15;4.93;;;4.53;;
323;SDS011;149;51.094;17.002;2023-05-02T14:33:42;7.50;;;4.00;;
323;SDS011;149;51.094;17.002;2023-05-02T14:36:10;5.70;;;4.23;;
323;SDS011;149;51.094;17.002;2023-05-02T14:38:38;5.87;;;5.13;;
323;SDS011;149;51.094;17.002;2023-05-02T14:41:05;7.00;;;4.53;;
323;SDS011;149;51.094;17.002;2023-05-02T14:43:34;9.13;;;4.90;;
323;SDS011;149;51.094;17.002;2023-05-02T14:46:01;6.57;;;4.97;;
323;SDS011;149;51.094;17.002;2023-05-02T14:48:29;13.93;;;4.90;;
323;SDS011;149;51.094;17.002;2023-05-02T14:50:55;5.13;;;4.57;;
323;SDS011;149;51.094;17.002;2023-05-02T14:53:24;5.57;;;5.07;;
323;SDS011;149;51.094;17.002;2023-05-02T14:55:52;5.20;;;4.43;;
323;SDS011;149;51.094;17.002;2023-05-02T14:58:20;5.57;;;4.30;;
323;SDS011;149;51.094;17.002;2023-05-02T15:00:46;5.30;;;4.80;;
323;SDS011;149;51.094;17.002;2023-05-02T15:03:13;6.20;;;5.03;;
323;SDS011;149;51.094;17.002;2023-05-02T15:05:40;7.57;;;4.40;;
323;SDS011;149;51.094;17.002;2023-05-02T15:08:08;7.33;;;5.40;;
323;SDS011;149;51.094;17.002;2023-05-02T15:10:38;6.90;;;4.43;;
323;SDS011;149;51.094;17.002;2023-05-02T15:13:05;6.57;;;6.07;;
323;SDS011;149;51.094;17.002;2023-05-02T15:15:32;5.23;;;4.73;;
323;SDS011;149;51.094;17.002;2023-05-02T15:17:59;7.00;;;4.27;;
323;SDS011;149;51.094;17.002;2023-05-02T15:20:28;4.80;;;4.30;;
323;SDS011;149;51.094;17.002;2023-05-02T15:22:58;6.63;;;4.63;;
323;SDS011;149;51.094;17.002;2023-05-02T15:25:29;7.57;;;5.80;;
323;SDS011;149;51.094;17.002;2023-05-02T15:27:56;5.07;;;4.20;;
323;SDS011;149;51.094;17.002;2023-05-02T15:30:24;11.33;;;4.93;;
323;SDS011;149;51.094;17.002;2023-05-02T15:32:51;7.60;;;5.30;;
323;SDS011;149;51.094;17.002;2023-05-02T15:35:18;6.50;;;4.90;;
323;SDS011;149;51.094;17.002;2023-05-02T15:37:47;5.70;;;5.10;;
323;SDS011;149;51.094;17.002;2023-05-02T15:40:15;4.40;;;4.07;;
323;SDS011;149;51.094;17.002;2023-05-02T15:42:45;8.10;;;5.07;;
323;SDS011;149;51.094;17.002;2023-05-02T15:45:12;4.90;;;4.50;;
323;SDS011;149;51.094;17.002;2023-05-02T15:47:42;5.57;;;4.90;;
323;SDS011;149;51.094;17.002;2023-05-02T15:50:09;7.43;;;6.23;;
323;SDS011;149;51.094;17.002;2023-05-02T15:52:36;7.50;;;6.80;;
323;SDS011;149;51.094;17.002;2023-05-02T15:55:04;7.60;;;6.90;;
323;SDS011;149;51.094;17.002;2023-05-02T15:57:31;7.43;;;6.70;;
323;SDS011;149;51.094;17.002;2023-05-02T15:59:58;7.97;;;6.90;;
323;SDS011;149;51.094;17.002;2023-05-02T16:02:28;7.20;;;6.50;;
323;SDS011;149;51.094;17.002;2023-05-02T16:04:56;7.80;;;7.10;;
323;SDS011;149;51.094;17.002;2023-05-02T16:07:23;8.37;;;7.60;;
323;SDS011;149;51.094;17.002;2023-05-02T16:09:50;22.60;;;8.73;;
323;SDS011;149;51.094;17.002;2023-05-02T16:12:17;8.90;;;7.97;;
323;SDS011;149;51.094;17.002;2023-05-02T16:14:43;8.77;;;7.93;;
323;SDS011;149;51.094;17.002;2023-05-02T16:17:12;10.80;;;8.43;;
323;SDS011;149;51.094;17.002;2023-05-02T16:19:39;12.17;;;8.90;;
323;SDS011;149;51.094;17.002;2023-05-02T16:22:06;8.63;;;7.90;;
323;SDS011;149;51.094;17.002;2023-05-02T16:24:35;10.17;;;8.80;;
323;SDS011;149;51.094;17.002;2023-05-02T16:27:02;9.43;;;8.43;;
323;SDS011;149;51.094;17.002;2023-05-02T16:29:30;10.60;;;8.20;;
323;SDS011;149;51.094;17.002;2023-05-02T16:31:57;8.43;;;7.77;;
323;SDS011;149;51.094;17.002;2023-05-02T16:34:25;11.10;;;8.70;;
323;SDS011;149;51.094;17.002;2023-05-02T16:36:55;9.07;;;8.27;;
323;SDS011;149;51.094;17.002;2023-05-02T16:39:22;10.53;;;7.77;;
323;SDS011;149;51.094;17.002;2023-05-02T16:41:49;8.43;;;7.73;;
323;SDS011;149;51.094;17.002;2023-05-02T16:44:16;8.47;;;7.67;;
323;SDS011;149;51.094;17.002;2023-05-02T16:46:43;8.80;;;7.97;;